sensor_id;sensor_type;location;lat;lon;timestamp;temperature;humidity
52107;DHT22;38105;52.968;5.974;2023-09-18T00:00:27;15.90;99.90
52107;DHT22;38105;52.968;5.974;2023-09-18T00:02:53;16.20;99.90
52107;DHT22;38105;52.968;5.974;2023-09-18T00:05:18;15.90;99.90
52107;DHT22;38105;52.968;5.974;2023-09-18T00:07:44;16.00;99.90
52107;DHT22;38105;52.968;5.974;2023-09-18T00:10:10;16.50;99.90
52107;DHT22;38105;52.968;5.974;2023-09-18T00:12:36;16.00;99.90
52107;DHT22;38105;52.968;5.974;2023-09-18T00:15:01;16.40;99.90
52107;DHT22;38105;52.968;5.974;2023-09-18T00:17:27;16.20;99.90
52107;DHT22;38105;52.968;5.974;2023-09-18T00:19:53;16.00;99.90
52107;DHT22;38105;52.968;5.974;2023-09-18T00:22:19;16.20;99.90
52107;DHT22;38105;52.968;5.974;2023-09-18T00:24:47;16.30;99.90
52107;DHT22;38105;52.968;5.974;2023-09-18T00:27:13;16.30;99.90
52107;DHT22;38105;52.968;5.974;2023-09-18T00:29:39;16.40;99.90
52107;DHT22;38105;52.968;5.974;2023-09-18T00:32:05;16.60;99.90
52107;DHT22;38105;52.968;5.974;2023-09-18T00:34:33;16.40;99.90
52107;DHT22;38105;52.968;5.974;2023-09-18T00:36:59;16.20;99.90
52107;DHT22;38105;52.968;5.974;2023-09-18T00:39:25;16.20;99.90
52107;DHT22;38105;52.968;5.974;2023-09-18T00:41:50;16.40;99.90
52107;DHT22;38105;52.968;5.974;2023-09-18T00:44:19;16.60;99.90
52107;DHT22;38105;52.968;5.974;2023-09-18T00:46:45;16.80;99.90
52107;DHT22;38105;52.968;5.974;2023-09-18T00:49:11;16.50;99.90
52107;DHT22;38105;52.968;5.974;2023-09-18T00:51:37;16.70;99.90
52107;DHT22;38105;52.968;5.974;2023-09-18T00:54:05;16.70;99.90
52107;DHT22;38105;52.968;5.974;2023-09-18T00:56:32;16.70;99.90
52107;DHT22;38105;52.968;5.974;2023-09-18T00:58:57;16.70;99.90
52107;DHT22;38105;52.968;5.974;2023-09-18T01:01:24;16.60;99.90
52107;DHT22;38105;52.968;5.974;2023-09-18T01:03:50;16.40;99.90
52107;DHT22;38105;52.968;5.974;2023-09-18T01:06:18;16.50;99.90
52107;DHT22;38105;52.968;5.974;2023-09-18T01:08:47;16.50;99.90
52107;DHT22;38105;52.968;5.974;2023-09-18T01:13:54;16.60;99.90
52107;DHT22;38105;52.968;5.974;2023-09-18T01:16:34;16.30;99.90
52107;DHT22;38105;52.968;5.974;2023-09-18T01:19:02;16.40;99.90
52107;DHT22;38105;52.968;5.974;2023-09-18T01:21:28;16.40;99.90
52107;DHT22;38105;52.968;5.974;2023-09-18T01:23:56;16.20;99.90
52107;DHT22;38105;52.968;5.974;2023-09-18T01:26:25;16.00;99.90
52107;DHT22;38105;52.968;5.974;2023-09-18T01:28:53;16.40;99.90
52107;DHT22;38105;52.968;5.974;2023-09-18T01:31:19;16.00;99.90
52107;DHT22;38105;52.968;5.974;2023-09-18T01:33:45;15.90;99.90
52107;DHT22;38105;52.968;5.974;2023-09-18T01:36:15;16.10;99.90
52107;DHT22;38105;52.968;5.974;2023-09-18T01:38:41;16.50;99.90
52107;DHT22;38105;52.968;5.974;2023-09-18T01:41:07;16.40;99.90
52107;DHT22;38105;52.968;5.974;2023-09-18T01:43:34;15.90;99.90
52107;DHT22;38105;52.968;5.974;2023-09-18T01:46:00;16.30;99.90
52107;DHT22;38105;52.968;5.974;2023-09-18T01:48:26;16.40;99.90
52107;DHT22;38105;52.968;5.974;2023-09-18T01:50:51;16.00;99.90
52107;DHT22;38105;52.968;5.974;2023-09-18T01:53:17;16.50;99.90
52107;DHT22;38105;52.968;5.974;2023-09-18T01:55:42;16.10;99.90
52107;DHT22;38105;52.968;5.974;2023-09-18T01:58:09;16.20;99.90
52107;DHT22;38105;52.968;5.974;2023-09-18T02:00:35;16.40;99.90
52107;DHT22;38105;52.968;5.974;2023-09-18T02:03:00;16.40;99.90
52107;DHT22;38105;52.968;5.974;2023-09-18T02:05:28;16.20;99.90
52107;DHT22;38105;52.968;5.974;2023-09-18T02:07:54;16.00;99.90
52107;DHT22;38105;52.968;5.974;2023-09-18T02:10:20;16.20;99.90
52107;DHT22;38105;52.968;5.974;2023-09-18T02:12:48;16.50;99.90
52107;DHT22;38105;52.968;5.974;2023-09-18T02:15:13;16.70;99.90
52107;DHT22;38105;52.968;5.974;2023-09-18T02:17:42;16.10;99.90
52107;DHT22;38105;52.968;5.974;2023-09-18T02:20:07;16.20;99.90
52107;DHT22;38105;52.968;5.974;2023-09-18T02:22:37;16.40;99.90
52107;DHT22;38105;52.968;5.974;2023-09-18T02:25:04;16.40;99.90
52107;DHT22;38105;52.968;5.974;2023-09-18T02:27:29;16.40;99.90
52107;DHT22;38105;52.968;5.974;2023-09-18T02:29:57;16.20;99.90
52107;DHT22;38105;52.968;5.974;2023-09-18T02:32:23;16.50;99.90
52107;DHT22;38105;52.968;5.974;2023-09-18T02:34:51;16.80;99.90
52107;DHT22;38105;52.968;5.974;2023-09-18T02:37:19;16.30;99.90
52107;DHT22;38105;52.968;5.974;2023-09-18T02:39:44;16.60;99.90
52107;DHT22;38105;52.968;5.974;2023-09-18T02:42:10;16.60;99.90
52107;DHT22;38105;52.968;5.974;2023-09-18T02:44:35;16.60;99.90
52107;DHT22;38105;52.968;5.974;2023-09-18T02:47:01;16.80;99.90
52107;DHT22;38105;52.968;5.974;2023-09-18T02:49:29;16.90;99.90
52107;DHT22;38105;52.968;5.974;2023-09-18T02:51:55;16.90;99.90
52107;DHT22;38105;52.968;5.974;2023-09-18T02:54:20;16.60;99.90
52107;DHT22;38105;52.968;5.974;2023-09-18T02:56:46;16.40;99.90
52107;DHT22;38105;52.968;5.974;2023-09-18T02:59:11;16.90;99.90
52107;DHT22;38105;52.968;5.974;2023-09-18T03:01:37;16.50;99.90
52107;DHT22;38105;52.968;5.974;2023-09-18T03:04:02;16.80;99.90
52107;DHT22;38105;52.968;5.974;2023-09-18T03:06:29;16.70;99.90
52107;DHT22;38105;52.968;5.974;2023-09-18T03:08:54;17.00;99.90
52107;DHT22;38105;52.968;5.974;2023-09-18T03:11:22;17.00;99.90
52107;DHT22;38105;52.968;5.974;2023-09-18T03:13:52;16.70;99.90
52107;DHT22;38105;52.968;5.974;2023-09-18T03:16:18;17.10;99.90
52107;DHT22;38105;52.968;5.974;2023-09-18T03:18:43;17.20;99.90
52107;DHT22;38105;52.968;5.974;2023-09-18T03:21:09;16.90;99.90
52107;DHT22;38105;52.968;5.974;2023-09-18T03:23:34;17.00;99.90
52107;DHT22;38105;52.968;5.974;2023-09-18T03:26:00;17.00;99.90
52107;DHT22;38105;52.968;5.974;2023-09-18T03:28:25;16.90;99.90
52107;DHT22;38105;52.968;5.974;2023-09-18T03:30:51;17.00;99.90
52107;DHT22;38105;52.968;5.974;2023-09-18T03:33:17;16.90;99.90
52107;DHT22;38105;52.968;5.974;2023-09-18T03:35:49;17.40;99.90
52107;DHT22;38105;52.968;5.974;2023-09-18T03:38:17;17.50;99.90
52107;DHT22;38105;52.968;5.974;2023-09-18T03:40:43;17.00;99.90
52107;DHT22;38105;52.968;5.974;2023-09-18T03:43:09;17.40;99.90
52107;DHT22;38105;52.968;5.974;2023-09-18T03:45:34;17.70;99.90
52107;DHT22;38105;52.968;5.974;2023-09-18T03:48:00;17.70;99.90
52107;DHT22;38105;52.968;5.974;2023-09-18T03:50:25;17.10;99.90
52107;DHT22;38105;52.968;5.974;2023-09-18T03:52:52;17.80;99.90
52107;DHT22;38105;52.968;5.974;2023-09-18T03:55:20;17.30;99.90
52107;DHT22;38105;52.968;5.974;2023-09-18T03:57:46;17.50;99.90
52107;DHT22;38105;52.968;5.974;2023-09-18T04:00:13;17.80;99.90
52107;DHT22;38105;52.968;5.974;2023-09-18T04:02:42;17.90;99.90
52107;DHT22;38105;52.968;5.974;2023-09-18T04:05:07;17.90;99.90
52107;DHT22;38105;52.968;5.974;2023-09-18T04:07:33;17.40;99.90
52107;DHT22;38105;52.968;5.974;2023-09-18T04:09:59;17.30;99.90
52107;DHT22;38105;52.968;5.974;2023-09-18T04:12:24;18.00;99.90
52107;DHT22;38105;52.968;5.974;2023-09-18T04:14:50;17.70;99.90
52107;DHT22;38105;52.968;5.974;2023-09-18T04:17:16;17.60;99.90
52107;DHT22;38105;52.968;5.974;2023-09-18T04:19:42;18.00;99.90
52107;DHT22;38105;52.968;5.974;2023-09-18T04:22:08;18.10;99.90
52107;DHT22;38105;52.968;5.974;2023-09-18T04:24:34;17.50;99.90
52107;DHT22;38105;52.968;5.974;2023-09-18T04:27:00;18.00;99.90
52107;DHT22;38105;52.968;5.974;2023-09-18T04:29:25;17.60;99.90
52107;DHT22;38105;52.968;5.974;2023-09-18T04:31:51;17.50;99.90
52107;DHT22;38105;52.968;5.974;2023-09-18T04:34:19;17.70;99.90
52107;DHT22;38105;52.968;5.974;2023-09-18T04:36:45;17.50;99.90
52107;DHT22;38105;52.968;5.974;2023-09-18T04:39:13;18.00;99.90
52107;DHT22;38105;52.968;5.974;2023-09-18T04:41:41;17.90;99.90
52107;DHT22;38105;52.968;5.974;2023-09-18T04:44:06;17.80;99.90
52107;DHT22;38105;52.968;5.974;2023-09-18T04:46:35;17.90;99.90
52107;DHT22;38105;52.968;5.974;2023-09-18T04:49:01;17.50;99.90
52107;DHT22;38105;52.968;5.974;2023-09-18T04:51:30;17.90;99.90
52107;DHT22;38105;52.968;5.974;2023-09-18T04:53:56;17.60;99.90
52107;DHT22;38105;52.968;5.974;2023-09-18T04:56:21;17.50;99.90
52107;DHT22;38105;52.968;5.974;2023-09-18T04:58:47;17.80;99.90
52107;DHT22;38105;52.968;5.974;2023-09-18T05:01:12;18.10;99.90
52107;DHT22;38105;52.968;5.974;2023-09-18T05:03:40;18.10;99.90
52107;DHT22;38105;52.968;5.974;2023-09-18T05:06:06;17.80;99.90
52107;DHT22;38105;52.968;5.974;2023-09-18T05:08:31;18.10;99.90
52107;DHT22;38105;52.968;5.974;2023-09-18T05:10:57;18.20;99.90
52107;DHT22;38105;52.968;5.974;2023-09-18T05:13:23;18.20;99.90
52107;DHT22;38105;52.968;5.974;2023-09-18T05:15:48;17.90;99.90
52107;DHT22;38105;52.968;5.974;2023-09-18T05:18:16;18.20;99.90
52107;DHT22;38105;52.968;5.974;2023-09-18T05:20:42;17.70;99.90
52107;DHT22;38105;52.968;5.974;2023-09-18T05:23:07;17.90;99.90
52107;DHT22;38105;52.968;5.974;2023-09-18T05:25:34;18.10;99.90
52107;DHT22;38105;52.968;5.974;2023-09-18T05:28:03;18.20;99.90
52107;DHT22;38105;52.968;5.974;2023-09-18T05:30:31;17.80;99.90
52107;DHT22;38105;52.968;5.974;2023-09-18T05:32:59;18.10;99.90
52107;DHT22;38105;52.968;5.974;2023-09-18T05:35:48;18.20;99.90
52107;DHT22;38105;52.968;5.974;2023-09-18T05:38:14;18.30;99.90
52107;DHT22;38105;52.968;5.974;2023-09-18T05:40:40;18.20;99.90
52107;DHT22;38105;52.968;5.974;2023-09-18T05:43:05;18.10;99.90
52107;DHT22;38105;52.968;5.974;2023-09-18T05:45:31;18.20;99.90
52107;DHT22;38105;52.968;5.974;2023-09-18T05:47:57;18.50;99.90
52107;DHT22;38105;52.968;5.974;2023-09-18T05:50:29;18.60;99.90
52107;DHT22;38105;52.968;5.974;2023-09-18T05:52:55;18.40;99.90
52107;DHT22;38105;52.968;5.974;2023-09-18T05:55:25;18.40;99.90
52107;DHT22;38105;52.968;5.974;2023-09-18T05:57:50;18.30;99.90
52107;DHT22;38105;52.968;5.974;2023-09-18T06:00:16;18.30;99.90
52107;DHT22;38105;52.968;5.974;2023-09-18T06:02:43;18.60;99.90
52107;DHT22;38105;52.968;5.974;2023-09-18T06:05:09;18.30;99.90
52107;DHT22;38105;52.968;5.974;2023-09-18T06:07:37;18.70;99.90
52107;DHT22;38105;52.968;5.974;2023-09-18T06:10:06;18.30;99.90
52107;DHT22;38105;52.968;5.974;2023-09-18T06:12:31;18.70;99.90
52107;DHT22;38105;52.968;5.974;2023-09-18T06:14:57;18.60;99.90
52107;DHT22;38105;52.968;5.974;2023-09-18T06:17:23;18.30;99.90
52107;DHT22;38105;52.968;5.974;2023-09-18T06:19:49;18.70;99.90
52107;DHT22;38105;52.968;5.974;2023-09-18T06:22:14;18.30;99.90
52107;DHT22;38105;52.968;5.974;2023-09-18T06:24:40;18.40;99.90
52107;DHT22;38105;52.968;5.974;2023-09-18T06:27:06;18.50;99.90
52107;DHT22;38105;52.968;5.974;2023-09-18T06:29:34;18.30;99.90
52107;DHT22;38105;52.968;5.974;2023-09-18T06:32:00;18.40;99.90
52107;DHT22;38105;52.968;5.974;2023-09-18T06:34:26;18.30;99.90
52107;DHT22;38105;52.968;5.974;2023-09-18T06:36:53;18.40;99.90
52107;DHT22;38105;52.968;5.974;2023-09-18T06:39:19;18.60;99.90
52107;DHT22;38105;52.968;5.974;2023-09-18T06:41:45;18.80;99.90
52107;DHT22;38105;52.968;5.974;2023-09-18T06:44:11;18.70;99.90
52107;DHT22;38105;52.968;5.974;2023-09-18T06:46:36;18.20;99.90
52107;DHT22;38105;52.968;5.974;2023-09-18T06:49:02;18.80;99.90
52107;DHT22;38105;52.968;5.974;2023-09-18T06:51:28;18.50;99.90
52107;DHT22;38105;52.968;5.974;2023-09-18T06:53:54;18.80;99.90
52107;DHT22;38105;52.968;5.974;2023-09-18T06:56:20;18.60;99.90
52107;DHT22;38105;52.968;5.974;2023-09-18T06:58:46;18.60;99.90
52107;DHT22;38105;52.968;5.974;2023-09-18T07:01:13;18.60;99.90
52107;DHT22;38105;52.968;5.974;2023-09-18T07:03:40;18.20;99.90
52107;DHT22;38105;52.968;5.974;2023-09-18T07:06:06;18.40;99.90
52107;DHT22;38105;52.968;5.974;2023-09-18T07:08:31;18.40;99.90
52107;DHT22;38105;52.968;5.974;2023-09-18T07:10:58;18.30;99.90
52107;DHT22;38105;52.968;5.974;2023-09-18T07:13:23;18.70;99.90
52107;DHT22;38105;52.968;5.974;2023-09-18T07:15:49;18.10;99.90
52107;DHT22;38105;52.968;5.974;2023-09-18T07:18:15;18.40;99.90
52107;DHT22;38105;52.968;5.974;2023-09-18T07:20:41;18.60;99.90
52107;DHT22;38105;52.968;5.974;2023-09-18T07:23:07;18.50;99.90
52107;DHT22;38105;52.968;5.974;2023-09-18T07:25:35;18.40;99.90
52107;DHT22;38105;52.968;5.974;2023-09-18T07:28:04;18.50;99.90
52107;DHT22;38105;52.968;5.974;2023-09-18T07:30:30;18.10;99.90
52107;DHT22;38105;52.968;5.974;2023-09-18T07:32:55;18.60;99.90
52107;DHT22;38105;52.968;5.974;2023-09-18T07:35:24;18.30;99.90
52107;DHT22;38105;52.968;5.974;2023-09-18T07:37:50;18.20;99.90
52107;DHT22;38105;52.968;5.974;2023-09-18T07:40:15;18.50;99.90
52107;DHT22;38105;52.968;5.974;2023-09-18T07:42:41;18.10;99.90
52107;DHT22;38105;52.968;5.974;2023-09-18T07:45:09;18.10;99.90
52107;DHT22;38105;52.968;5.974;2023-09-18T07:47:35;18.30;99.90
52107;DHT22;38105;52.968;5.974;2023-09-18T07:50:00;18.30;99.90
52107;DHT22;38105;52.968;5.974;2023-09-18T07:52:26;18.10;99.90
52107;DHT22;38105;52.968;5.974;2023-09-18T07:54:52;18.30;99.90
52107;DHT22;38105;52.968;5.974;2023-09-18T07:57:17;18.30;99.90
52107;DHT22;38105;52.968;5.974;2023-09-18T07:59:44;18.60;99.90
52107;DHT22;38105;52.968;5.974;2023-09-18T08:02:09;18.10;99.90
52107;DHT22;38105;52.968;5.974;2023-09-18T08:04:35;18.70;99.90
52107;DHT22;38105;52.968;5.974;2023-09-18T08:07:00;18.20;99.90
52107;DHT22;38105;52.968;5.974;2023-09-18T08:09:26;18.40;99.90
52107;DHT22;38105;52.968;5.974;2023-09-18T08:11:54;18.50;99.90
52107;DHT22;38105;52.968;5.974;2023-09-18T08:14:21;18.80;99.90
52107;DHT22;38105;52.968;5.974;2023-09-18T08:16:47;18.50;99.90
52107;DHT22;38105;52.968;5.974;2023-09-18T08:19:15;18.80;99.90
52107;DHT22;38105;52.968;5.974;2023-09-18T08:21:42;19.10;99.90
52107;DHT22;38105;52.968;5.974;2023-09-18T08:24:08;19.20;99.90
52107;DHT22;38105;52.968;5.974;2023-09-18T08:26:33;19.20;99.90
52107;DHT22;38105;52.968;5.974;2023-09-18T08:28:59;18.90;99.90
52107;DHT22;38105;52.968;5.974;2023-09-18T08:31:24;19.20;99.90
52107;DHT22;38105;52.968;5.974;2023-09-18T08:33:50;19.10;99.90
52107;DHT22;38105;52.968;5.974;2023-09-18T08:36:16;18.80;99.90
52107;DHT22;38105;52.968;5.974;2023-09-18T08:38:41;19.10;99.90
52107;DHT22;38105;52.968;5.974;2023-09-18T08:41:09;18.90;99.90
52107;DHT22;38105;52.968;5.974;2023-09-18T08:43:35;19.10;99.90
52107;DHT22;38105;52.968;5.974;2023-09-18T08:46:02;18.90;99.90
52107;DHT22;38105;52.968;5.974;2023-09-18T08:48:29;19.00;99.90
52107;DHT22;38105;52.968;5.974;2023-09-18T08:51:03;19.40;99.90
52107;DHT22;38105;52.968;5.974;2023-09-18T08:53:35;19.30;99.90
52107;DHT22;38105;52.968;5.974;2023-09-18T08:56:01;19.50;99.90
52107;DHT22;38105;52.968;5.974;2023-09-18T08:58:31;19.30;99.90
52107;DHT22;38105;52.968;5.974;2023-09-18T09:00:57;19.00;99.90
52107;DHT22;38105;52.968;5.974;2023-09-18T09:03:23;19.40;99.90
52107;DHT22;38105;52.968;5.974;2023-09-18T09:05:48;19.50;99.90
52107;DHT22;38105;52.968;5.974;2023-09-18T09:08:14;19.00;99.90
52107;DHT22;38105;52.968;5.974;2023-09-18T09:10:40;19.40;99.90
52107;DHT22;38105;52.968;5.974;2023-09-18T09:13:06;19.10;99.90
52107;DHT22;38105;52.968;5.974;2023-09-18T09:15:32;19.30;99.90
52107;DHT22;38105;52.968;5.974;2023-09-18T09:20:29;19.40;99.90
52107;DHT22;38105;52.968;5.974;2023-09-18T09:22:59;20.00;99.90
52107;DHT22;38105;52.968;5.974;2023-09-18T09:25:25;20.00;99.90
52107;DHT22;38105;52.968;5.974;2023-09-18T09:27:52;20.40;99.90
52107;DHT22;38105;52.968;5.974;2023-09-18T09:30:19;21.00;99.90
52107;DHT22;38105;52.968;5.974;2023-09-18T09:32:47;20.80;99.90
52107;DHT22;38105;52.968;5.974;2023-09-18T09:35:18;20.70;99.90
52107;DHT22;38105;52.968;5.974;2023-09-18T09:37:44;21.10;99.90
52107;DHT22;38105;52.968;5.974;2023-09-18T09:40:10;20.70;99.90
52107;DHT22;38105;52.968;5.974;2023-09-18T09:42:40;21.00;99.90
52107;DHT22;38105;52.968;5.974;2023-09-18T09:45:15;20.90;99.90
52107;DHT22;38105;52.968;5.974;2023-09-18T09:47:43;20.80;99.90
52107;DHT22;38105;52.968;5.974;2023-09-18T09:50:10;20.80;99.90
52107;DHT22;38105;52.968;5.974;2023-09-18T09:52:40;20.90;99.90
52107;DHT22;38105;52.968;5.974;2023-09-18T09:55:17;20.80;99.90
52107;DHT22;38105;52.968;5.974;2023-09-18T09:57:47;20.80;99.90
52107;DHT22;38105;52.968;5.974;2023-09-18T10:00:13;21.30;99.90
52107;DHT22;38105;52.968;5.974;2023-09-18T10:03:01;21.70;99.90
52107;DHT22;38105;52.968;5.974;2023-09-18T10:05:31;21.90;99.90
52107;DHT22;38105;52.968;5.974;2023-09-18T10:07:58;22.10;99.90
52107;DHT22;38105;52.968;5.974;2023-09-18T10:10:27;22.40;99.90
52107;DHT22;38105;52.968;5.974;2023-09-18T10:12:54;22.40;99.90
52107;DHT22;38105;52.968;5.974;2023-09-18T10:15:21;22.40;99.90
52107;DHT22;38105;52.968;5.974;2023-09-18T10:17:48;22.50;99.90
52107;DHT22;38105;52.968;5.974;2023-09-18T10:20:17;22.30;99.90
52107;DHT22;38105;52.968;5.974;2023-09-18T10:22:46;22.00;99.90
52107;DHT22;38105;52.968;5.974;2023-09-18T10:25:17;21.90;99.90
52107;DHT22;38105;52.968;5.974;2023-09-18T10:27:47;21.60;99.90
52107;DHT22;38105;52.968;5.974;2023-09-18T10:30:15;21.70;99.90
52107;DHT22;38105;52.968;5.974;2023-09-18T10:32:43;21.70;99.90
52107;DHT22;38105;52.968;5.974;2023-09-18T10:35:11;21.90;99.90
52107;DHT22;38105;52.968;5.974;2023-09-18T10:37:40;22.10;99.90
52107;DHT22;38105;52.968;5.974;2023-09-18T10:40:09;22.00;99.90
52107;DHT22;38105;52.968;5.974;2023-09-18T10:42:38;21.80;99.90
52107;DHT22;38105;52.968;5.974;2023-09-18T10:45:04;21.90;99.90
52107;DHT22;38105;52.968;5.974;2023-09-18T10:47:32;21.70;99.90
52107;DHT22;38105;52.968;5.974;2023-09-18T10:50:04;21.70;99.90
52107;DHT22;38105;52.968;5.974;2023-09-18T10:52:35;21.70;99.90
52107;DHT22;38105;52.968;5.974;2023-09-18T10:55:01;21.70;99.90
52107;DHT22;38105;52.968;5.974;2023-09-18T10:57:32;21.70;99.90
52107;DHT22;38105;52.968;5.974;2023-09-18T11:00:06;21.70;99.90
52107;DHT22;38105;52.968;5.974;2023-09-18T11:02:41;21.80;99.90
52107;DHT22;38105;52.968;5.974;2023-09-18T11:05:07;22.00;99.90
52107;DHT22;38105;52.968;5.974;2023-09-18T11:07:33;22.30;99.90
52107;DHT22;38105;52.968;5.974;2023-09-18T11:10:20;22.70;99.90
52107;DHT22;38105;52.968;5.974;2023-09-18T11:12:49;22.90;99.90
52107;DHT22;38105;52.968;5.974;2023-09-18T11:18:09;22.80;99.90
52107;DHT22;38105;52.968;5.974;2023-09-18T11:20:35;22.60;99.90
52107;DHT22;38105;52.968;5.974;2023-09-18T11:23:16;22.40;99.90
52107;DHT22;38105;52.968;5.974;2023-09-18T11:25:43;22.20;99.90
52107;DHT22;38105;52.968;5.974;2023-09-18T11:28:16;22.20;99.90
52107;DHT22;38105;52.968;5.974;2023-09-18T11:30:57;22.10;99.90
52107;DHT22;38105;52.968;5.974;2023-09-18T11:36:01;22.10;99.90
52107;DHT22;38105;52.968;5.974;2023-09-18T11:38:28;22.20;99.90
52107;DHT22;38105;52.968;5.974;2023-09-18T11:40:54;22.40;99.90
52107;DHT22;38105;52.968;5.974;2023-09-18T11:45:49;22.70;99.90
52107;DHT22;38105;52.968;5.974;2023-09-18T11:48:18;22.60;99.90
52107;DHT22;38105;52.968;5.974;2023-09-18T11:50:44;22.50;99.90
52107;DHT22;38105;52.968;5.974;2023-09-18T11:53:13;22.40;99.90
52107;DHT22;38105;52.968;5.974;2023-09-18T11:55:39;22.30;99.90
52107;DHT22;38105;52.968;5.974;2023-09-18T11:58:07;22.30;99.90
52107;DHT22;38105;52.968;5.974;2023-09-18T12:00:36;22.60;99.90
52107;DHT22;38105;52.968;5.974;2023-09-18T12:03:15;22.80;99.90
52107;DHT22;38105;52.968;5.974;2023-09-18T12:08:22;22.80;99.90
52107;DHT22;38105;52.968;5.974;2023-09-18T12:10:49;22.70;99.90
52107;DHT22;38105;52.968;5.974;2023-09-18T12:13:20;22.60;99.90
52107;DHT22;38105;52.968;5.974;2023-09-18T12:15:49;22.50;99.90
52107;DHT22;38105;52.968;5.974;2023-09-18T12:18:15;22.40;99.90
52107;DHT22;38105;52.968;5.974;2023-09-18T12:20:44;22.30;99.90
52107;DHT22;38105;52.968;5.974;2023-09-18T12:23:12;22.20;99.90
52107;DHT22;38105;52.968;5.974;2023-09-18T12:25:38;22.10;99.90
52107;DHT22;38105;52.968;5.974;2023-09-18T12:28:07;22.10;99.90
52107;DHT22;38105;52.968;5.974;2023-09-18T12:30:36;22.10;99.90
52107;DHT22;38105;52.968;5.974;2023-09-18T12:33:02;22.10;99.90
52107;DHT22;38105;52.968;5.974;2023-09-18T12:35:29;22.10;99.90
52107;DHT22;38105;52.968;5.974;2023-09-18T12:37:58;22.30;99.90
52107;DHT22;38105;52.968;5.974;2023-09-18T12:40:26;22.30;99.90
52107;DHT22;38105;52.968;5.974;2023-09-18T12:42:51;22.60;99.90
52107;DHT22;38105;52.968;5.974;2023-09-18T12:45:22;22.80;99.90
52107;DHT22;38105;52.968;5.974;2023-09-18T12:47:49;22.80;99.90
52107;DHT22;38105;52.968;5.974;2023-09-18T12:50:15;22.70;99.90
52107;DHT22;38105;52.968;5.974;2023-09-18T12:52:40;22.80;99.90
52107;DHT22;38105;52.968;5.974;2023-09-18T12:55:06;22.90;99.90
52107;DHT22;38105;52.968;5.974;2023-09-18T12:57:32;22.90;99.90
52107;DHT22;38105;52.968;5.974;2023-09-18T13:00:10;23.00;99.90
52107;DHT22;38105;52.968;5.974;2023-09-18T13:02:37;23.00;99.90
52107;DHT22;38105;52.968;5.974;2023-09-18T13:05:03;23.00;99.90
52107;DHT22;38105;52.968;5.974;2023-09-18T13:07:43;23.10;99.90
52107;DHT22;38105;52.968;5.974;2023-09-18T13:10:08;23.20;99.90
52107;DHT22;38105;52.968;5.974;2023-09-18T13:13:00;23.20;99.90
52107;DHT22;38105;52.968;5.974;2023-09-18T13:15:29;23.20;99.90
52107;DHT22;38105;52.968;5.974;2023-09-18T13:17:55;23.20;99.90
52107;DHT22;38105;52.968;5.974;2023-09-18T13:20:25;23.10;99.90
52107;DHT22;38105;52.968;5.974;2023-09-18T13:22:52;23.00;99.90
52107;DHT22;38105;52.968;5.974;2023-09-18T13:25:19;23.00;99.90
52107;DHT22;38105;52.968;5.974;2023-09-18T13:27:45;23.10;99.90
52107;DHT22;38105;52.968;5.974;2023-09-18T13:30:10;23.00;99.90
52107;DHT22;38105;52.968;5.974;2023-09-18T13:32:36;22.90;99.90
52107;DHT22;38105;52.968;5.974;2023-09-18T13:35:05;22.90;99.90
52107;DHT22;38105;52.968;5.974;2023-09-18T13:37:36;22.90;99.90
52107;DHT22;38105;52.968;5.974;2023-09-18T13:40:07;22.80;99.90
52107;DHT22;38105;52.968;5.974;2023-09-18T13:42:34;22.80;99.90
52107;DHT22;38105;52.968;5.974;2023-09-18T13:45:03;22.80;99.90
52107;DHT22;38105;52.968;5.974;2023-09-18T13:47:32;22.70;99.90
52107;DHT22;38105;52.968;5.974;2023-09-18T13:49:58;22.70;99.90
52107;DHT22;38105;52.968;5.974;2023-09-18T13:52:31;22.60;99.90
52107;DHT22;38105;52.968;5.974;2023-09-18T13:54:59;22.70;99.90
52107;DHT22;38105;52.968;5.974;2023-09-18T13:57:25;22.70;99.90
52107;DHT22;38105;52.968;5.974;2023-09-18T13:59:51;22.80;99.90
52107;DHT22;38105;52.968;5.974;2023-09-18T14:02:19;22.80;99.90
52107;DHT22;38105;52.968;5.974;2023-09-18T14:04:45;22.80;99.90
52107;DHT22;38105;52.968;5.974;2023-09-18T14:07:14;22.80;99.90
52107;DHT22;38105;52.968;5.974;2023-09-18T14:09:42;22.80;99.90
52107;DHT22;38105;52.968;5.974;2023-09-18T14:12:14;22.80;99.90
52107;DHT22;38105;52.968;5.974;2023-09-18T14:14:41;22.80;99.90
52107;DHT22;38105;52.968;5.974;2023-09-18T14:17:09;22.70;99.90
52107;DHT22;38105;52.968;5.974;2023-09-18T14:19:35;22.70;99.90
52107;DHT22;38105;52.968;5.974;2023-09-18T14:22:00;22.70;99.90
52107;DHT22;38105;52.968;5.974;2023-09-18T14:24:30;22.80;99.90
52107;DHT22;38105;52.968;5.974;2023-09-18T14:27:02;22.70;99.90
52107;DHT22;38105;52.968;5.974;2023-09-18T14:29:28;22.50;99.90
52107;DHT22;38105;52.968;5.974;2023-09-18T14:31:55;22.50;99.90
52107;DHT22;38105;52.968;5.974;2023-09-18T14:34:24;22.40;99.90
52107;DHT22;38105;52.968;5.974;2023-09-18T14:36:50;22.20;99.90
52107;DHT22;38105;52.968;5.974;2023-09-18T14:39:19;22.10;99.90
52107;DHT22;38105;52.968;5.974;2023-09-18T14:41:47;22.10;99.90
52107;DHT22;38105;52.968;5.974;2023-09-18T14:44:16;22.20;99.90
52107;DHT22;38105;52.968;5.974;2023-09-18T14:46:41;22.10;99.90
52107;DHT22;38105;52.968;5.974;2023-09-18T14:49:12;22.20;99.90
52107;DHT22;38105;52.968;5.974;2023-09-18T14:51:38;22.20;99.90
52107;DHT22;38105;52.968;5.974;2023-09-18T14:54:03;22.20;99.90
52107;DHT22;38105;52.968;5.974;2023-09-18T14:56:31;22.20;99.90
52107;DHT22;38105;52.968;5.974;2023-09-18T14:58:57;22.20;99.90
52107;DHT22;38105;52.968;5.974;2023-09-18T15:01:23;22.20;99.90
52107;DHT22;38105;52.968;5.974;2023-09-18T15:03:49;22.30;99.90
52107;DHT22;38105;52.968;5.974;2023-09-18T15:06:15;22.20;99.90
52107;DHT22;38105;52.968;5.974;2023-09-18T15:08:41;22.20;99.90
52107;DHT22;38105;52.968;5.974;2023-09-18T15:11:06;22.20;99.90
52107;DHT22;38105;52.968;5.974;2023-09-18T15:13:32;22.20;99.90
52107;DHT22;38105;52.968;5.974;2023-09-18T15:16:00;22.10;99.90
52107;DHT22;38105;52.968;5.974;2023-09-18T15:18:25;22.00;99.90
52107;DHT22;38105;52.968;5.974;2023-09-18T15:20:51;21.90;99.90
52107;DHT22;38105;52.968;5.974;2023-09-18T15:23:21;21.70;99.90
52107;DHT22;38105;52.968;5.974;2023-09-18T15:25:48;21.60;99.90
52107;DHT22;38105;52.968;5.974;2023-09-18T15:28:16;21.40;99.90
52107;DHT22;38105;52.968;5.974;2023-09-18T15:30:43;21.30;99.90
52107;DHT22;38105;52.968;5.974;2023-09-18T15:33:08;21.20;99.90
52107;DHT22;38105;52.968;5.974;2023-09-18T15:35:34;21.10;99.90
52107;DHT22;38105;52.968;5.974;2023-09-18T15:38:07;21.10;99.90
52107;DHT22;38105;52.968;5.974;2023-09-18T15:40:33;21.10;99.90
52107;DHT22;38105;52.968;5.974;2023-09-18T15:42:59;21.10;99.90
52107;DHT22;38105;52.968;5.974;2023-09-18T15:45:24;21.00;99.90